Ostrava, Czech Republic
Current Conditions -  °F | °C
As of 12:30 PM on Friday 21 Nov 2014 (Local Time) from LKMT Reporting Station
Haze Haze  
Wind Chill: 35°   Ceiling: 400
Heat Index: 39°   Visibility: 2.1mi
Dew Point: 37°   Wind: 6mph
Humidity: 93%   Direction: 20°NNE
Pressure: 30.3"   Gusts: NA
Location:  49.83°N, 18.27°E
Report Text: LKMT 211030Z 02005KT 3500 BR BKN004 OVC010 04/03 Q1026 NOSIG
Loading
Personal Weather Stations






























Interactive Weather Map New forecast layout! Learn more

10-Day Weather Forecast

Advertisements
Track Severe Weather on mobile